createdAt,value
2023-05-02T00:02:08.187Z,12.12
2023-05-02T00:05:11.712Z,12.02
2023-05-02T00:08:27.500Z,12.06
2023-05-02T00:11:30.806Z,12.08
2023-05-02T00:14:33.772Z,11.99
2023-05-02T00:17:37.190Z,11.91
2023-05-02T00:20:43.049Z,11.86
2023-05-02T00:23:45.978Z,11.85
2023-05-02T00:26:48.791Z,11.88
2023-05-02T00:29:52.644Z,11.93
2023-05-02T00:32:55.522Z,11.99
2023-05-02T00:35:58.355Z,11.91
2023-05-02T00:39:01.187Z,11.93
2023-05-02T00:42:04.581Z,11.96
2023-05-02T00:45:07.829Z,12.00
2023-05-02T00:48:11.269Z,11.99
2023-05-02T00:51:14.259Z,11.87
2023-05-02T00:54:17.601Z,11.77
2023-05-02T00:57:20.931Z,11.70
2023-05-02T01:00:31.741Z,11.71
2023-05-02T01:03:47.427Z,11.67
2023-05-02T01:07:20.191Z,11.66
2023-05-02T01:10:34.891Z,11.68
2023-05-02T01:13:39.248Z,11.71
2023-05-02T01:16:45.891Z,11.67
2023-05-02T01:19:55.514Z,11.62
2023-05-02T01:23:03.803Z,11.52
2023-05-02T01:26:17.674Z,11.52
2023-05-02T01:29:22.190Z,11.47
2023-05-02T01:32:27.339Z,11.40
2023-05-02T01:35:33.568Z,11.36
2023-05-02T01:38:39.452Z,11.41
2023-05-02T01:41:44.229Z,11.33
2023-05-02T01:44:48.865Z,11.28
2023-05-02T01:47:52.579Z,11.29
2023-05-02T01:50:57.307Z,11.28
2023-05-02T01:54:02.611Z,11.27
2023-05-02T01:57:07.285Z,11.25
2023-05-02T02:00:11.851Z,11.24
2023-05-02T02:03:19.214Z,11.23
2023-05-02T02:06:22.506Z,11.23
2023-05-02T02:09:26.029Z,11.22
2023-05-02T02:12:36.897Z,11.20
2023-05-02T02:15:41.887Z,11.16
2023-05-02T02:18:46.534Z,11.20
2023-05-02T02:21:51.855Z,11.16
2023-05-02T02:24:55.548Z,11.14
2023-05-02T02:27:58.464Z,11.11
2023-05-02T02:31:01.527Z,11.11
2023-05-02T02:34:05.746Z,11.12
2023-05-02T02:37:33.519Z,11.05
2023-05-02T02:40:55.541Z,11.02
2023-05-02T02:44:13.670Z,10.93
2023-05-02T02:47:31.186Z,10.87
2023-05-02T02:50:43.944Z,10.71
2023-05-02T02:54:22.919Z,10.65
2023-05-02T02:57:37.826Z,10.71
2023-05-02T03:00:41.231Z,10.70
2023-05-02T03:03:45.305Z,10.70
2023-05-02T03:06:49.237Z,10.63
2023-05-02T03:09:53.419Z,10.61
2023-05-02T03:12:59.027Z,10.57
2023-05-02T03:16:32.523Z,10.63
2023-05-02T03:19:37.398Z,10.67
2023-05-02T03:22:41.565Z,10.64
2023-05-02T03:25:44.544Z,10.56
2023-05-02T03:28:51.948Z,10.55
2023-05-02T03:32:01.418Z,10.50
2023-05-02T03:35:04.809Z,10.44
2023-05-02T03:38:13.634Z,10.38
2023-05-02T03:41:16.658Z,10.33
2023-05-02T03:44:20.631Z,10.25
2023-05-02T03:47:23.613Z,10.23
2023-05-02T03:50:26.966Z,10.30
2023-05-02T03:53:33.928Z,10.27
2023-05-02T03:56:37.284Z,10.32
2023-05-02T03:59:56.062Z,10.29
2023-05-02T04:03:03.972Z,10.33
2023-05-02T04:06:09.281Z,10.35
2023-05-02T04:09:12.710Z,10.36
2023-05-02T04:12:22.944Z,10.35
2023-05-02T04:15:28.198Z,10.43
2023-05-02T04:18:31.991Z,10.47
2023-05-02T04:21:37.628Z,10.60
2023-05-02T04:24:42.607Z,10.69
2023-05-02T04:27:45.684Z,10.89
2023-05-02T04:30:52.099Z,11.38
2023-05-02T04:33:57.878Z,11.79
2023-05-02T04:37:03.968Z,12.38
2023-05-02T04:40:09.342Z,12.68
2023-05-02T04:43:12.294Z,13.15
2023-05-02T04:46:19.559Z,13.60
2023-05-02T04:49:22.529Z,14.16
2023-05-02T04:52:25.442Z,14.70
2023-05-02T04:55:28.297Z,14.54
2023-05-02T04:58:31.663Z,15.03
2023-05-02T05:01:39.919Z,15.23
2023-05-02T05:04:45.950Z,15.92
2023-05-02T05:07:49.300Z,16.27
2023-05-02T05:10:53.834Z,15.94
2023-05-02T05:13:58.619Z,15.22
2023-05-02T05:17:03.441Z,15.32
2023-05-02T05:20:09.496Z,15.07
2023-05-02T05:23:16.996Z,15.46
2023-05-02T05:26:21.528Z,15.89
2023-05-02T05:29:25.064Z,16.57
2023-05-02T05:32:29.681Z,17.09
2023-05-02T05:35:36.156Z,17.52
2023-05-02T05:38:39.867Z,17.90
2023-05-02T05:41:44.931Z,18.39
2023-05-02T05:44:48.514Z,18.88
2023-05-02T05:47:55.204Z,19.03
2023-05-02T05:51:05.705Z,18.17
2023-05-02T05:54:09.303Z,17.68
2023-05-02T05:57:13.599Z,18.44
2023-05-02T06:00:17.472Z,19.95
2023-05-02T06:03:23.942Z,19.72
2023-05-02T06:06:27.894Z,19.88
2023-05-02T06:09:31.754Z,19.34
2023-05-02T06:12:35.427Z,19.13
2023-05-02T06:15:38.784Z,19.23
2023-05-02T06:18:42.667Z,18.75
2023-05-02T06:21:45.557Z,18.84
2023-05-02T06:24:48.588Z,19.09
2023-05-02T06:27:51.508Z,19.43
2023-05-02T06:31:07.701Z,18.54
2023-05-02T06:34:12.432Z,18.57
2023-05-02T06:37:17.082Z,18.99
2023-05-02T06:40:24.275Z,19.57
2023-05-02T06:43:27.745Z,19.62
2023-05-02T06:46:33.739Z,20.28
2023-05-02T06:49:36.939Z,20.25
2023-05-02T06:52:39.770Z,19.56
2023-05-02T06:55:42.837Z,19.57
2023-05-02T06:58:45.979Z,20.27
2023-05-02T07:01:51.930Z,20.73
2023-05-02T07:04:55.469Z,20.61
2023-05-02T07:07:58.527Z,21.54
2023-05-02T07:11:04.560Z,22.14
2023-05-02T07:14:09.011Z,21.78
2023-05-02T07:17:12.288Z,22.51
2023-05-02T07:20:16.677Z,22.35
2023-05-02T07:23:20.621Z,22.35
2023-05-02T07:26:25.491Z,22.06
2023-05-02T07:29:28.545Z,21.71
2023-05-02T07:32:32.296Z,22.35
2023-05-02T07:35:38.300Z,22.00
2023-05-02T07:38:45.410Z,22.81
2023-05-02T07:41:52.629Z,23.37
2023-05-02T07:44:56.625Z,23.59
2023-05-02T07:47:59.556Z,23.26
2023-05-02T07:51:10.950Z,23.27
2023-05-02T07:54:21.587Z,23.82
2023-05-02T07:57:28.658Z,24.28
2023-05-02T08:00:43.164Z,23.64
2023-05-02T08:03:50.288Z,24.51
2023-05-02T08:06:53.532Z,24.83
2023-05-02T08:09:56.491Z,24.98
2023-05-02T08:12:59.504Z,25.19
2023-05-02T08:16:05.941Z,24.98
2023-05-02T08:19:12.046Z,25.85
2023-05-02T08:22:18.100Z,26.22
2023-05-02T08:25:21.360Z,26.29
2023-05-02T08:28:26.526Z,27.16
2023-05-02T08:31:31.458Z,26.87
2023-05-02T08:34:34.396Z,27.79
2023-05-02T08:37:38.403Z,26.29
2023-05-02T08:40:43.209Z,27.28
2023-05-02T08:43:47.356Z,28.35
2023-05-02T08:46:52.807Z,27.74
2023-05-02T08:49:57.731Z,28.09
2023-05-02T08:53:01.042Z,27.73
2023-05-02T08:56:05.212Z,27.52
2023-05-02T08:59:08.356Z,27.49
2023-05-02T09:02:33.815Z,28.23
2023-05-02T09:05:41.946Z,27.08
2023-05-02T09:08:46.408Z,26.90
2023-05-02T09:11:51.101Z,26.43
2023-05-02T09:15:20.692Z,26.57
2023-05-02T09:18:48.528Z,26.17
2023-05-02T09:21:51.688Z,26.26
2023-05-02T09:24:55.627Z,25.03
2023-05-02T09:28:05.764Z,25.23
2023-05-02T09:31:16.895Z,24.46
2023-05-02T09:34:22.099Z,24.11
2023-05-02T09:37:35.526Z,24.40
2023-05-02T09:40:40.470Z,24.32
2023-05-02T09:44:01.579Z,23.85
2023-05-02T09:47:04.470Z,23.70
2023-05-02T09:50:32.961Z,23.14
2023-05-02T09:53:46.577Z,23.04
2023-05-02T09:56:56.996Z,23.12
2023-05-02T09:59:59.933Z,23.94
2023-05-02T10:03:04.905Z,23.78
2023-05-02T10:06:10.324Z,23.58
2023-05-02T10:09:19.735Z,24.35
2023-05-02T10:12:27.072Z,24.14
2023-05-02T10:15:31.815Z,23.87
2023-05-02T10:19:02.069Z,23.93
2023-05-02T10:22:05.901Z,23.46
2023-05-02T10:25:09.742Z,23.30
2023-05-02T10:28:18.645Z,23.50
2023-05-02T10:31:46.406Z,23.25
2023-05-02T10:35:26.688Z,22.88
2023-05-02T10:38:39.083Z,22.93
2023-05-02T10:41:43.160Z,23.66
2023-05-02T10:44:47.186Z,23.85
2023-05-02T10:47:51.372Z,23.89
2023-05-02T10:50:56.969Z,24.18
2023-05-02T10:54:18.329Z,24.07
2023-05-02T10:57:22.877Z,24.24
2023-05-02T11:00:29.916Z,24.12
2023-05-02T11:04:04.262Z,23.18
2023-05-02T11:07:07.456Z,22.94
2023-05-02T11:10:20.700Z,22.61
2023-05-02T11:13:53.077Z,22.82
2023-05-02T11:17:07.467Z,23.38
2023-05-02T11:20:10.310Z,23.90
2023-05-02T11:23:26.871Z,23.51
2023-05-02T11:26:36.017Z,23.30
2023-05-02T11:30:15.540Z,23.48
2023-05-02T11:33:20.244Z,23.38
2023-05-02T11:36:30.926Z,22.55
2023-05-02T11:39:34.385Z,22.97
2023-05-02T11:42:38.226Z,22.99
2023-05-02T11:45:42.780Z,22.86
2023-05-02T11:48:45.813Z,22.92
2023-05-02T11:51:48.816Z,22.66
2023-05-02T11:54:56.787Z,22.89
2023-05-02T11:57:59.909Z,22.74
2023-05-02T12:01:13.670Z,22.67
2023-05-02T12:04:16.710Z,22.72
2023-05-02T12:07:19.798Z,22.99
2023-05-02T12:11:01.738Z,23.08
2023-05-02T12:14:06.565Z,23.00
2023-05-02T12:21:03.145Z,23.29
2023-05-02T12:24:06.191Z,22.61
2023-05-02T12:27:17.782Z,22.40
2023-05-02T12:30:27.924Z,22.84
2023-05-02T12:33:48.417Z,23.31
2023-05-02T12:36:51.203Z,23.37
2023-05-02T12:39:55.792Z,23.67
2023-05-02T12:43:04.451Z,23.68
2023-05-02T12:46:11.358Z,23.61
2023-05-02T12:49:14.184Z,24.49
2023-05-02T12:52:18.893Z,23.55
2023-05-02T12:55:31.581Z,24.06
2023-05-02T12:58:42.286Z,24.08
2023-05-02T13:01:45.121Z,23.86
2023-05-02T13:04:47.852Z,23.54
2023-05-02T13:07:50.918Z,23.54
2023-05-02T13:10:54.252Z,23.06
2023-05-02T13:13:57.239Z,22.97
2023-05-02T13:17:00.639Z,23.17
2023-05-02T13:20:04.063Z,23.26
2023-05-02T13:23:07.342Z,23.20
2023-05-02T13:26:11.253Z,22.98
2023-05-02T13:29:14.147Z,22.63
2023-05-02T13:32:17.071Z,22.84
2023-05-02T13:35:19.963Z,22.59
2023-05-02T13:38:23.062Z,22.56
2023-05-02T13:41:25.848Z,22.55
2023-05-02T13:44:29.531Z,22.38
2023-05-02T13:47:32.458Z,22.23
2023-05-02T13:50:37.514Z,21.95
2023-05-02T13:53:40.305Z,22.10
2023-05-02T13:56:43.575Z,22.02
2023-05-02T13:59:46.490Z,21.82
2023-05-02T14:02:49.421Z,22.23
2023-05-02T14:05:52.365Z,22.31
2023-05-02T14:08:55.345Z,22.30
2023-05-02T14:11:59.190Z,22.50
2023-05-02T14:15:02.031Z,22.64
2023-05-02T14:18:04.914Z,22.93
2023-05-02T14:21:07.807Z,23.00
2023-05-02T14:24:12.739Z,22.84
2023-05-02T14:27:18.505Z,22.54
2023-05-02T14:30:21.445Z,22.73
2023-05-02T14:33:24.421Z,22.35
2023-05-02T14:36:27.366Z,22.40
2023-05-02T14:39:30.297Z,22.33
2023-05-02T14:42:33.801Z,22.19
2023-05-02T14:45:36.957Z,22.18
2023-05-02T14:48:39.898Z,22.15
2023-05-02T14:51:47.297Z,22.12
2023-05-02T14:54:50.557Z,22.29
2023-05-02T14:57:54.972Z,22.38
2023-05-02T15:00:58.952Z,22.25
2023-05-02T15:07:10.136Z,21.90
2023-05-02T15:10:13.256Z,21.73
2023-05-02T15:13:16.642Z,21.57
2023-05-02T15:16:19.874Z,21.51
2023-05-02T15:19:24.154Z,21.39
2023-05-02T15:22:27.181Z,21.53
2023-05-02T15:25:30.839Z,21.50
2023-05-02T15:28:36.682Z,21.45
2023-05-02T15:31:39.931Z,21.51
2023-05-02T15:34:42.869Z,21.41
2023-05-02T15:37:45.847Z,21.52
2023-05-02T15:40:58.778Z,21.61
2023-05-02T15:44:01.961Z,21.63
2023-05-02T15:47:05.207Z,21.81
2023-05-02T15:50:08.386Z,21.73
2023-05-02T15:53:11.383Z,21.71
2023-05-02T15:56:14.558Z,21.78
2023-05-02T15:59:17.613Z,21.51
2023-05-02T16:02:21.872Z,21.61
2023-05-02T16:05:24.833Z,21.52
2023-05-02T16:08:28.554Z,21.41
2023-05-02T16:11:31.482Z,21.25
2023-05-02T16:14:34.950Z,21.24
2023-05-02T16:17:37.944Z,21.07
2023-05-02T16:20:42.314Z,20.79
2023-05-02T16:23:45.145Z,20.78
2023-05-02T16:26:48.086Z,20.71
2023-05-02T16:29:51.232Z,20.56
2023-05-02T16:32:54.881Z,20.50
2023-05-02T16:36:04.624Z,20.49
2023-05-02T16:39:07.501Z,20.28
2023-05-02T16:42:10.442Z,19.98
2023-05-02T16:45:13.705Z,19.97
2023-05-02T16:48:16.824Z,19.87
2023-05-02T16:51:20.222Z,19.83
2023-05-02T16:54:23.036Z,19.85
2023-05-02T16:57:25.835Z,19.76
2023-05-02T17:00:28.598Z,19.61
2023-05-02T17:03:31.796Z,19.63
2023-05-02T17:06:34.988Z,19.45
2023-05-02T17:09:39.095Z,19.41
2023-05-02T17:12:42.149Z,19.45
2023-05-02T17:15:45.236Z,19.31
2023-05-02T17:18:48.409Z,19.18
2023-05-02T17:21:52.206Z,19.16
2023-05-02T17:24:55.125Z,19.18
2023-05-02T17:27:57.908Z,19.14
2023-05-02T17:31:01.362Z,19.14
2023-05-02T17:34:04.428Z,19.06
2023-05-02T17:37:08.086Z,19.06
2023-05-02T17:40:11.423Z,18.99
2023-05-02T17:43:14.234Z,18.98
2023-05-02T17:46:17.006Z,18.91
2023-05-02T17:49:19.853Z,18.69
2023-05-02T17:52:22.671Z,18.69
2023-05-02T17:55:25.780Z,18.55
2023-05-02T17:58:28.748Z,18.48
2023-05-02T18:01:31.837Z,18.43
2023-05-02T18:04:35.088Z,18.32
2023-05-02T18:07:38.040Z,18.21
2023-05-02T18:10:44.614Z,18.20
2023-05-02T18:13:48.665Z,18.08
2023-05-02T18:16:51.588Z,18.01
2023-05-02T18:19:54.649Z,17.89
2023-05-02T18:22:59.271Z,17.87
2023-05-02T18:26:02.203Z,17.78
2023-05-02T18:29:05.820Z,17.72
2023-05-02T18:32:08.962Z,17.58
2023-05-02T18:35:12.772Z,17.55
2023-05-02T18:38:16.853Z,17.52
2023-05-02T18:41:19.752Z,17.52
2023-05-02T18:44:22.571Z,17.44
2023-05-02T18:47:25.842Z,17.50
2023-05-02T18:50:29.329Z,17.32
2023-05-02T18:53:32.682Z,17.22
2023-05-02T18:56:35.744Z,17.08
2023-05-02T18:59:38.987Z,17.07
2023-05-02T19:02:41.887Z,17.01
2023-05-02T19:05:45.865Z,16.91
2023-05-02T19:08:49.374Z,16.87
2023-05-02T19:11:55.164Z,16.85
2023-05-02T19:14:57.910Z,16.76
2023-05-02T19:18:00.918Z,16.74
2023-05-02T19:21:12.863Z,16.71
2023-05-02T19:24:18.681Z,16.74
2023-05-02T19:27:22.042Z,16.59
2023-05-02T19:30:25.307Z,16.44
2023-05-02T19:33:28.772Z,16.37
2023-05-02T19:36:32.223Z,16.30
2023-05-02T19:39:35.338Z,16.23
2023-05-02T19:42:39.555Z,16.29
2023-05-02T19:45:42.671Z,16.17
2023-05-02T19:48:46.202Z,16.18
2023-05-02T19:51:49.632Z,16.13
2023-05-02T19:54:52.895Z,16.10
2023-05-02T19:57:55.951Z,16.07
2023-05-02T20:01:00.106Z,16.11
2023-05-02T20:04:03.195Z,16.07
2023-05-02T20:07:06.214Z,16.06
2023-05-02T20:10:09.707Z,16.02
2023-05-02T20:13:12.830Z,16.03
2023-05-02T20:16:16.153Z,15.94
2023-05-02T20:19:20.683Z,15.93
2023-05-02T20:22:25.092Z,15.97
2023-05-02T20:25:28.766Z,16.06
2023-05-02T20:28:31.608Z,15.98
2023-05-02T20:31:34.452Z,15.84
2023-05-02T20:34:39.277Z,15.90
2023-05-02T20:37:42.174Z,15.83
2023-05-02T20:40:45.825Z,15.80
2023-05-02T20:43:49.897Z,15.78
2023-05-02T20:46:52.857Z,15.75
2023-05-02T20:49:57.048Z,15.84
2023-05-02T20:52:59.932Z,15.77
2023-05-02T20:56:02.637Z,15.77
2023-05-02T20:59:05.851Z,15.71
2023-05-02T21:02:09.242Z,15.69
2023-05-02T21:05:12.039Z,15.62
2023-05-02T21:08:14.792Z,15.61
2023-05-02T21:11:17.685Z,15.57
2023-05-02T21:14:20.986Z,15.48
2023-05-02T21:17:26.574Z,15.35
2023-05-02T21:20:29.633Z,15.32
2023-05-02T21:23:32.619Z,15.23
2023-05-02T21:26:35.456Z,15.18
2023-05-02T21:29:38.216Z,15.14
2023-05-02T21:32:41.480Z,15.04
2023-05-02T21:35:44.916Z,15.09
2023-05-02T21:38:47.698Z,15.01
2023-05-02T21:41:50.688Z,14.96
2023-05-02T21:44:53.665Z,14.88
2023-05-02T21:48:01.482Z,14.88
2023-05-02T21:51:11.980Z,14.84
2023-05-02T21:54:15.116Z,14.82
2023-05-02T21:57:19.127Z,14.76
2023-05-02T22:00:21.987Z,14.81
2023-05-02T22:03:25.536Z,14.83
2023-05-02T22:06:28.638Z,14.86
2023-05-02T22:09:33.444Z,14.90
2023-05-02T22:12:36.381Z,14.90
2023-05-02T22:15:48.549Z,14.93
2023-05-02T22:18:51.649Z,14.97
2023-05-02T22:21:57.340Z,15.03
2023-05-02T22:25:02.831Z,15.05
2023-05-02T22:28:07.174Z,15.13
2023-05-02T22:31:10.334Z,15.18
2023-05-02T22:34:13.275Z,15.20
2023-05-02T22:37:16.484Z,15.10
2023-05-02T22:40:19.609Z,15.09
2023-05-02T22:43:22.371Z,15.11
2023-05-02T22:46:25.348Z,15.04
2023-05-02T22:49:28.774Z,14.89
2023-05-02T22:52:37.927Z,14.87
2023-05-02T22:55:40.770Z,14.85
2023-05-02T22:58:43.681Z,14.84
2023-05-02T23:01:47.125Z,14.87
2023-05-02T23:04:51.110Z,14.82
2023-05-02T23:07:53.889Z,14.83
2023-05-02T23:10:56.814Z,14.83
2023-05-02T23:13:59.915Z,14.81
2023-05-02T23:17:03.584Z,14.81
2023-05-02T23:20:10.398Z,14.71
2023-05-02T23:23:13.547Z,14.69
2023-05-02T23:26:16.305Z,14.66
2023-05-02T23:29:19.428Z,14.68
2023-05-02T23:32:23.664Z,14.65
2023-05-02T23:35:26.779Z,14.67
2023-05-02T23:38:29.607Z,14.67
2023-05-02T23:41:32.805Z,14.62
2023-05-02T23:44:35.640Z,14.60
2023-05-02T23:47:38.765Z,14.55
2023-05-02T23:50:41.711Z,14.57
2023-05-02T23:53:44.874Z,14.57
2023-05-02T23:56:47.827Z,14.63
2023-05-02T23:59:50.688Z,14.61
